CQH1097 ZSSS-ZBSJ
Flight info
| Callsign | CQH1097 |
|---|---|
| Flight time | N/A |
| Altitude | 32100 |
| Route | PIK72D PIKAS G330 UNTAN G345 OLRIS R343 HFE B208 OBMEP W56 ORODO W62 AVLIS AVLIS9ZA |
| Aircraft | A320/M-SDE3FGHIRWY/LB1 |
Departure
| Time | 2026-04-29 07:05 |
|---|---|
| Airport | Shanghai Hongqiao International Airport (ZSSS) |
Arrival
| Time | N/A |
|---|---|
| Airport | Shijiazhuang Zhengding International Airport (ZBSJ) |
| Time | Latitude | Longitude | Altitude | Speed | Heading |
|---|---|---|---|---|---|
| 2026-04-29 06:47 | 31.19815 | 121.32819 | 19 ft | 0 kts | 327° |
| 2026-04-29 06:57 | 31.19808 | 121.32824 | 19 ft | 4 kts | 330° |
| 2026-04-29 06:57 | 31.19775 | 121.32841 | 21 ft | 4 kts | 339° |
| 2026-04-29 06:57 | 31.19759 | 121.32849 | 20 ft | 4 kts | 335° |
| 2026-04-29 06:58 | 31.19731 | 121.32872 | 21 ft | 4 kts | 299° |
| 2026-04-29 06:58 | 31.19725 | 121.32890 | 23 ft | 3 kts | 270° |
| 2026-04-29 06:58 | 31.19725 | 121.32900 | 21 ft | 0 kts | 267° |
| 2026-04-29 07:00 | 31.19724 | 121.32881 | 21 ft | 4 kts | 264° |
| 2026-04-29 07:01 | 31.19710 | 121.32868 | 19 ft | 2 kts | 210° |
| 2026-04-29 07:01 | 31.19682 | 121.32864 | 19 ft | 10 kts | 170° |
| 2026-04-29 07:01 | 31.19655 | 121.32975 | 19 ft | 19 kts | 86° |
| 2026-04-29 07:01 | 31.19581 | 121.33067 | 19 ft | 18 kts | 173° |
| 2026-04-29 07:02 | 31.19465 | 121.33075 | 19 ft | 16 kts | 177° |
| 2026-04-29 07:02 | 31.19300 | 121.33084 | 18 ft | 26 kts | 175° |
| 2026-04-29 07:02 | 31.19167 | 121.33089 | 19 ft | 29 kts | 177° |
| 2026-04-29 07:02 | 31.18962 | 121.33103 | 19 ft | 31 kts | 178° |
| 2026-04-29 07:03 | 31.18742 | 121.33113 | 20 ft | 32 kts | 177° |
| 2026-04-29 07:03 | 31.18516 | 121.33127 | 19 ft | 30 kts | 178° |
| 2026-04-29 07:03 | 31.18362 | 121.33141 | 19 ft | 14 kts | 147° |
| 2026-04-29 07:03 | 31.18352 | 121.33214 | 19 ft | 8 kts | 65° |
| 2026-04-29 07:04 | 31.18351 | 121.33287 | 19 ft | 10 kts | 81° |
| 2026-04-29 07:04 | 31.18404 | 121.33324 | 20 ft | 10 kts | 355° |
| 2026-04-29 07:04 | 31.18413 | 121.33324 | 21 ft | 0 kts | 356° |
| 2026-04-29 07:04 | 31.18416 | 121.33324 | 20 ft | 3 kts | 356° |
| 2026-04-29 07:05 | 31.18652 | 121.33310 | 20 ft | 72 kts | 358° |
| 2026-04-29 07:05 | 31.19386 | 121.33271 | 18 ft | 133 kts | 358° |
| 2026-04-29 07:05 | 31.20435 | 121.33233 | 311 ft | 158 kts | 2° |
| 2026-04-29 07:05 | 31.21538 | 121.33199 | 972 ft | 161 kts | 0° |
| 2026-04-29 07:06 | 31.22676 | 121.33133 | 1616 ft | 171 kts | 0° |
| 2026-04-29 07:06 | 31.23949 | 121.33056 | 2006 ft | 195 kts | 0° |
| 2026-04-29 07:06 | 31.25387 | 121.32972 | 2506 ft | 220 kts | 1° |
| 2026-04-29 07:06 | 31.26990 | 121.32877 | 3037 ft | 241 kts | 0° |
| 2026-04-29 07:07 | 31.28635 | 121.32374 | 3171 ft | 252 kts | 333° |
| 2026-04-29 07:07 | 31.29193 | 121.31889 | 3199 ft | 256 kts | 322° |
| 2026-04-29 07:07 | 31.30083 | 121.30800 | 3196 ft | 257 kts | 317° |
| 2026-04-29 07:08 | 31.31281 | 121.29256 | 3198 ft | 257 kts | 317° |
| 2026-04-29 07:08 | 31.32480 | 121.27707 | 3201 ft | 257 kts | 317° |
| 2026-04-29 07:08 | 31.33682 | 121.26161 | 3201 ft | 257 kts | 317° |
| 2026-04-29 07:08 | 31.34889 | 121.24613 | 3206 ft | 257 kts | 318° |
| 2026-04-29 07:09 | 31.36094 | 121.23066 | 3199 ft | 256 kts | 317° |
| 2026-04-29 07:09 | 31.37287 | 121.21536 | 3211 ft | 256 kts | 317° |
| 2026-04-29 07:09 | 31.38492 | 121.19993 | 3210 ft | 256 kts | 317° |
| 2026-04-29 07:09 | 31.39709 | 121.18439 | 3502 ft | 263 kts | 317° |
| 2026-04-29 07:10 | 31.40430 | 121.17519 | 4135 ft | 261 kts | 317° |
| 2026-04-29 07:10 | 31.41022 | 121.16771 | 4681 ft | 261 kts | 317° |
| 2026-04-29 07:10 | 31.42255 | 121.15203 | 5713 ft | 263 kts | 315° |
| 2026-04-29 07:11 | 31.43502 | 121.13606 | 6667 ft | 267 kts | 314° |
| 2026-04-29 07:11 | 31.44821 | 121.12053 | 7549 ft | 271 kts | 322° |
| 2026-04-29 07:11 | 31.46435 | 121.10896 | 8468 ft | 274 kts | 335° |
| 2026-04-29 07:11 | 31.48186 | 121.09977 | 9392 ft | 277 kts | 334° |
| 2026-04-29 07:12 | 31.49960 | 121.09040 | 10229 ft | 283 kts | 333° |
| 2026-04-29 07:12 | 31.51809 | 121.08056 | 10664 ft | 303 kts | 333° |
| 2026-04-29 07:12 | 31.53805 | 121.06988 | 10945 ft | 327 kts | 333° |
| 2026-04-29 07:12 | 31.55932 | 121.05849 | 11374 ft | 343 kts | 333° |
| 2026-04-29 07:13 | 31.58124 | 121.04682 | 12055 ft | 350 kts | 332° |
| 2026-04-29 07:13 | 31.60367 | 121.03493 | 12751 ft | 356 kts | 332° |
| 2026-04-29 07:13 | 31.62621 | 121.02297 | 13442 ft | 363 kts | 331° |
| 2026-04-29 07:13 | 31.64962 | 121.01052 | 14111 ft | 369 kts | 330° |
| 2026-04-29 07:14 | 31.67219 | 120.99851 | 14713 ft | 373 kts | 330° |
| 2026-04-29 07:14 | 31.69590 | 120.98588 | 15398 ft | 376 kts | 330° |
| 2026-04-29 07:14 | 31.72016 | 120.97293 | 16079 ft | 380 kts | 329° |
| 2026-04-29 07:14 | 31.74396 | 120.96022 | 16725 ft | 383 kts | 329° |
| 2026-04-29 07:15 | 31.76840 | 120.94715 | 17369 ft | 387 kts | 329° |
| 2026-04-29 07:15 | 31.79295 | 120.93404 | 17987 ft | 390 kts | 328° |
| 2026-04-29 07:15 | 31.81790 | 120.92069 | 18581 ft | 394 kts | 328° |
| 2026-04-29 07:15 | 31.84298 | 120.90726 | 19092 ft | 398 kts | 328° |
| 2026-04-29 07:16 | 31.86835 | 120.89369 | 19609 ft | 401 kts | 328° |
| 2026-04-29 07:16 | 31.89386 | 120.88005 | 20116 ft | 404 kts | 328° |
| 2026-04-29 07:16 | 31.91952 | 120.86633 | 20625 ft | 407 kts | 327° |
| 2026-04-29 07:16 | 31.94538 | 120.85247 | 21119 ft | 410 kts | 327° |
| 2026-04-29 07:17 | 31.97112 | 120.83865 | 21638 ft | 413 kts | 328° |
| 2026-04-29 07:17 | 31.99740 | 120.82452 | 22096 ft | 417 kts | 328° |
| 2026-04-29 07:17 | 32.02393 | 120.81022 | 22582 ft | 420 kts | 327° |
| 2026-04-29 07:17 | 32.05059 | 120.79582 | 23062 ft | 423 kts | 327° |
| 2026-04-29 07:18 | 32.07744 | 120.78137 | 23532 ft | 426 kts | 327° |
| 2026-04-29 07:18 | 32.10426 | 120.76646 | 23955 ft | 424 kts | 323° |
| 2026-04-29 07:18 | 32.12810 | 120.74696 | 24322 ft | 414 kts | 310° |
| 2026-04-29 07:18 | 32.14746 | 120.72244 | 24702 ft | 404 kts | 298° |
| 2026-04-29 07:19 | 32.16165 | 120.69492 | 25069 ft | 395 kts | 288° |
| 2026-04-29 07:19 | 32.17096 | 120.66471 | 25449 ft | 388 kts | 277° |
| 2026-04-29 07:19 | 32.17515 | 120.63353 | 25822 ft | 383 kts | 270° |
| 2026-04-29 07:19 | 32.17767 | 120.60284 | 26195 ft | 384 kts | 270° |
| 2026-04-29 07:20 | 32.18029 | 120.57133 | 26596 ft | 386 kts | 269° |
| 2026-04-29 07:20 | 32.18288 | 120.54017 | 26980 ft | 387 kts | 269° |
| 2026-04-29 07:20 | 32.18556 | 120.50812 | 27376 ft | 389 kts | 269° |
| 2026-04-29 07:20 | 32.18818 | 120.47672 | 27756 ft | 390 kts | 269° |
| 2026-04-29 07:21 | 32.19082 | 120.44478 | 28136 ft | 391 kts | 269° |
| 2026-04-29 07:21 | 32.19346 | 120.41271 | 28505 ft | 393 kts | 269° |
| 2026-04-29 07:21 | 32.19610 | 120.38051 | 28878 ft | 395 kts | 269° |
| 2026-04-29 07:21 | 32.19874 | 120.34823 | 29219 ft | 396 kts | 269° |
| 2026-04-29 07:22 | 32.20048 | 120.31579 | 29548 ft | 393 kts | 263° |
| 2026-04-29 07:22 | 32.19740 | 120.28405 | 29885 ft | 388 kts | 253° |
| 2026-04-29 07:22 | 32.18930 | 120.25385 | 30202 ft | 385 kts | 244° |
| 2026-04-29 07:22 | 32.17707 | 120.22565 | 30488 ft | 386 kts | 240° |
| 2026-04-29 07:23 | 32.16424 | 120.19778 | 30756 ft | 387 kts | 240° |
| 2026-04-29 07:23 | 32.15141 | 120.16983 | 31046 ft | 387 kts | 240° |
| 2026-04-29 07:23 | 32.13862 | 120.14193 | 31385 ft | 385 kts | 239° |
| 2026-04-29 07:23 | 32.12605 | 120.11451 | 31769 ft | 384 kts | 239° |
| 2026-04-29 07:24 | 32.11336 | 120.08684 | 32179 ft | 383 kts | 239° |
| 2026-04-29 07:24 | 32.10067 | 120.05920 | 32324 ft | 381 kts | 239° |
| 2026-04-29 07:24 | 32.08819 | 120.03199 | 32362 ft | 374 kts | 239° |
| 2026-04-29 07:25 | 32.06354 | 119.97827 | 32362 ft | 371 kts | 239° |
| 2026-04-29 07:25 | 32.03897 | 119.92493 | 32363 ft | 370 kts | 239° |
| 2026-04-29 07:26 | 32.01467 | 119.87145 | 32356 ft | 370 kts | 239° |
| 2026-04-29 07:26 | 31.99049 | 119.81784 | 32357 ft | 370 kts | 239° |
| 2026-04-29 07:27 | 31.96632 | 119.76434 | 32356 ft | 370 kts | 239° |
| 2026-04-29 07:27 | 31.94224 | 119.71115 | 32363 ft | 370 kts | 239° |
| 2026-04-29 07:28 | 31.91857 | 119.65719 | 32348 ft | 371 kts | 240° |
| 2026-04-29 07:28 | 31.89556 | 119.60285 | 32346 ft | 371 kts | 241° |
| 2026-04-29 07:29 | 31.87252 | 119.54863 | 32353 ft | 370 kts | 240° |
| 2026-04-29 07:29 | 31.84938 | 119.49453 | 32376 ft | 370 kts | 241° |
| 2026-04-29 07:30 | 31.82652 | 119.44137 | 32344 ft | 370 kts | 240° |
| 2026-04-29 07:30 | 31.80318 | 119.38728 | 32340 ft | 370 kts | 240° |
| 2026-04-29 07:31 | 31.76798 | 119.30700 | 32350 ft | 370 kts | 240° |
| 2026-04-29 07:31 | 31.74428 | 119.25344 | 32344 ft | 370 kts | 240° |
| 2026-04-29 07:32 | 31.72058 | 119.19975 | 32360 ft | 370 kts | 240° |
| 2026-04-29 07:32 | 31.69732 | 119.14697 | 32358 ft | 370 kts | 240° |
| 2026-04-29 07:33 | 31.67368 | 119.09341 | 32335 ft | 370 kts | 240° |
| 2026-04-29 07:33 | 31.65496 | 119.03709 | 32314 ft | 378 kts | 255° |
| 2026-04-29 07:34 | 31.65513 | 118.97550 | 32309 ft | 390 kts | 267° |
| 2026-04-29 07:34 | 31.66002 | 118.91206 | 32334 ft | 390 kts | 267° |
| 2026-04-29 07:35 | 31.66479 | 118.84870 | 32325 ft | 389 kts | 267° |
| 2026-04-29 07:35 | 31.66943 | 118.78637 | 32325 ft | 389 kts | 267° |
| 2026-04-29 07:36 | 31.67413 | 118.72310 | 32327 ft | 389 kts | 267° |
| 2026-04-29 07:36 | 31.67871 | 118.65978 | 32350 ft | 389 kts | 267° |
| 2026-04-29 07:37 | 31.68329 | 118.59666 | 32355 ft | 389 kts | 267° |
| 2026-04-29 07:37 | 31.68790 | 118.53335 | 32357 ft | 389 kts | 267° |
| 2026-04-29 07:38 | 31.69247 | 118.47007 | 32358 ft | 389 kts | 267° |
| 2026-04-29 07:38 | 31.69699 | 118.40673 | 32362 ft | 389 kts | 267° |
| 2026-04-29 07:39 | 31.70148 | 118.34347 | 32390 ft | 389 kts | 267° |
| 2026-04-29 07:39 | 31.70591 | 118.28050 | 32380 ft | 389 kts | 267° |
| 2026-04-29 07:40 | 31.71035 | 118.21724 | 32366 ft | 389 kts | 267° |
| 2026-04-29 07:40 | 31.71475 | 118.15388 | 32365 ft | 388 kts | 266° |
| 2026-04-29 07:41 | 31.71908 | 118.09067 | 32362 ft | 389 kts | 267° |
| 2026-04-29 07:41 | 31.72366 | 118.02730 | 32398 ft | 389 kts | 267° |
| 2026-04-29 07:42 | 31.72843 | 117.96395 | 32390 ft | 389 kts | 267° |
| 2026-04-29 07:42 | 31.73308 | 117.90084 | 32348 ft | 388 kts | 267° |
| 2026-04-29 07:43 | 31.73685 | 117.84827 | 32352 ft | 389 kts | 267° |
| 2026-04-29 07:43 | 31.74213 | 117.77456 | 32359 ft | 389 kts | 267° |
| 2026-04-29 07:44 | 31.74667 | 117.71129 | 32365 ft | 389 kts | 267° |
| 2026-04-29 07:44 | 31.75038 | 117.65866 | 32361 ft | 389 kts | 267° |
| 2026-04-29 07:45 | 31.75483 | 117.59535 | 32364 ft | 389 kts | 267° |
| 2026-04-29 07:45 | 31.75926 | 117.53208 | 32371 ft | 389 kts | 267° |
| 2026-04-29 07:46 | 31.76360 | 117.46869 | 32413 ft | 389 kts | 267° |
| 2026-04-29 07:46 | 31.76787 | 117.40676 | 32406 ft | 388 kts | 267° |
| 2026-04-29 07:47 | 31.77238 | 117.34350 | 32401 ft | 390 kts | 270° |
| 2026-04-29 07:47 | 31.77873 | 117.31205 | 32397 ft | 402 kts | 281° |
| 2026-04-29 07:47 | 31.79102 | 117.28194 | 32393 ft | 417 kts | 292° |
| 2026-04-29 07:48 | 31.80876 | 117.25472 | 32390 ft | 429 kts | 300° |
| 2026-04-29 07:48 | 31.82815 | 117.22807 | 32386 ft | 429 kts | 300° |
| 2026-04-29 07:48 | 31.86696 | 117.17474 | 32344 ft | 429 kts | 300° |
| 2026-04-29 07:49 | 31.90566 | 117.12132 | 32362 ft | 428 kts | 299° |
| 2026-04-29 07:49 | 31.94353 | 117.06865 | 32358 ft | 428 kts | 299° |
| 2026-04-29 07:50 | 31.98164 | 117.01556 | 32324 ft | 427 kts | 299° |
| 2026-04-29 07:50 | 32.01940 | 116.96315 | 32317 ft | 427 kts | 299° |
| 2026-04-29 07:51 | 32.05794 | 116.90975 | 32313 ft | 427 kts | 299° |
| 2026-04-29 07:51 | 32.09610 | 116.85688 | 32364 ft | 428 kts | 299° |
| 2026-04-29 07:52 | 32.13464 | 116.80333 | 32360 ft | 428 kts | 299° |
| 2026-04-29 07:52 | 32.17246 | 116.75062 | 32366 ft | 428 kts | 299° |
| 2026-04-29 07:53 | 32.21080 | 116.69676 | 32380 ft | 428 kts | 299° |
| 2026-04-29 07:53 | 32.24820 | 116.64284 | 32383 ft | 427 kts | 298° |
| 2026-04-29 07:54 | 32.28577 | 116.58827 | 32389 ft | 427 kts | 298° |
| 2026-04-29 07:54 | 32.32316 | 116.53421 | 32418 ft | 428 kts | 299° |
| 2026-04-29 07:55 | 32.36085 | 116.47984 | 32398 ft | 427 kts | 299° |
| 2026-04-29 07:55 | 32.39850 | 116.42541 | 32395 ft | 427 kts | 299° |
| 2026-04-29 07:56 | 32.43611 | 116.37092 | 32392 ft | 427 kts | 299° |
| 2026-04-29 07:56 | 32.47362 | 116.31640 | 32392 ft | 427 kts | 299° |
| 2026-04-29 07:57 | 32.51115 | 116.26178 | 32388 ft | 427 kts | 299° |
| 2026-04-29 07:57 | 32.54873 | 116.20712 | 32413 ft | 427 kts | 300° |
| 2026-04-29 07:58 | 32.58618 | 116.15301 | 32411 ft | 427 kts | 300° |
| 2026-04-29 07:58 | 32.62453 | 116.09915 | 32404 ft | 428 kts | 301° |
| 2026-04-29 07:59 | 32.66308 | 116.04534 | 32431 ft | 427 kts | 301° |
| 2026-04-29 07:59 | 32.70142 | 115.99142 | 32416 ft | 427 kts | 301° |
| 2026-04-29 08:00 | 32.73958 | 115.93738 | 32429 ft | 427 kts | 301° |
| 2026-04-29 08:00 | 32.77787 | 115.88317 | 32411 ft | 428 kts | 301° |
| 2026-04-29 08:01 | 32.81611 | 115.82909 | 32400 ft | 428 kts | 301° |
| 2026-04-29 08:01 | 32.85448 | 115.77467 | 32398 ft | 428 kts | 301° |
| 2026-04-29 08:02 | 32.89268 | 115.72025 | 32394 ft | 429 kts | 301° |
| 2026-04-29 08:02 | 32.93177 | 115.66645 | 32394 ft | 430 kts | 302° |
| 2026-04-29 08:03 | 32.97108 | 115.61335 | 32412 ft | 430 kts | 302° |
| 2026-04-29 08:03 | 33.01044 | 115.55992 | 32437 ft | 429 kts | 302° |
| 2026-04-29 08:04 | 33.04960 | 115.50637 | 32410 ft | 427 kts | 302° |
| 2026-04-29 08:04 | 33.08843 | 115.45293 | 32390 ft | 427 kts | 301° |
| 2026-04-29 08:05 | 33.12730 | 115.39936 | 32386 ft | 426 kts | 301° |
| 2026-04-29 08:05 | 33.16560 | 115.34662 | 32386 ft | 426 kts | 301° |
| 2026-04-29 08:06 | 33.20443 | 115.29304 | 32398 ft | 426 kts | 302° |
| 2026-04-29 08:06 | 33.24280 | 115.23995 | 32399 ft | 425 kts | 302° |
| 2026-04-29 08:07 | 33.28141 | 115.18652 | 32394 ft | 424 kts | 302° |
| 2026-04-29 08:07 | 33.31991 | 115.13315 | 32391 ft | 424 kts | 302° |
| 2026-04-29 08:08 | 33.35837 | 115.07979 | 32424 ft | 424 kts | 302° |
| 2026-04-29 08:08 | 33.39680 | 115.02645 | 32411 ft | 423 kts | 302° |
| 2026-04-29 08:09 | 33.43479 | 114.97367 | 32395 ft | 419 kts | 302° |
| 2026-04-29 08:09 | 33.47272 | 114.92086 | 32387 ft | 417 kts | 302° |
| 2026-04-29 08:10 | 33.51050 | 114.86799 | 32379 ft | 417 kts | 302° |
| 2026-04-29 08:10 | 33.54828 | 114.81520 | 32373 ft | 417 kts | 302° |
| 2026-04-29 08:11 | 33.58607 | 114.76238 | 32361 ft | 417 kts | 302° |
| 2026-04-29 08:11 | 33.62411 | 114.70990 | 32365 ft | 417 kts | 303° |
| 2026-04-29 08:12 | 33.66307 | 114.65811 | 32353 ft | 422 kts | 307° |
| 2026-04-29 08:12 | 33.70907 | 114.61294 | 32365 ft | 429 kts | 313° |
| 2026-04-29 08:13 | 33.75545 | 114.56869 | 32362 ft | 428 kts | 313° |
| 2026-04-29 08:13 | 33.80490 | 114.52776 | 32357 ft | 443 kts | 326° |
| 2026-04-29 08:14 | 33.83431 | 114.51511 | 32356 ft | 456 kts | 338° |
| 2026-04-29 08:14 | 33.86610 | 114.50970 | 32352 ft | 469 kts | 351° |
| 2026-04-29 08:14 | 33.93214 | 114.51472 | 32346 ft | 477 kts | 357° |
| 2026-04-29 08:15 | 33.99827 | 114.52107 | 32337 ft | 477 kts | 357° |
| 2026-04-29 08:15 | 34.06448 | 114.52735 | 32338 ft | 477 kts | 357° |
| 2026-04-29 08:16 | 34.13072 | 114.53360 | 32339 ft | 477 kts | 357° |
| 2026-04-29 08:16 | 34.19705 | 114.53990 | 32384 ft | 478 kts | 357° |
| 2026-04-29 08:17 | 34.26324 | 114.54613 | 32373 ft | 477 kts | 357° |
| 2026-04-29 08:17 | 34.32941 | 114.55237 | 32365 ft | 476 kts | 357° |
| 2026-04-29 08:18 | 34.39539 | 114.55869 | 32356 ft | 475 kts | 357° |
| 2026-04-29 08:18 | 34.46133 | 114.56505 | 32373 ft | 475 kts | 357° |
| 2026-04-29 08:19 | 34.52720 | 114.57136 | 32355 ft | 474 kts | 357° |
| 2026-04-29 08:19 | 34.59303 | 114.57757 | 32347 ft | 474 kts | 357° |
| 2026-04-29 08:20 | 34.65879 | 114.58376 | 32383 ft | 474 kts | 357° |
| 2026-04-29 08:20 | 34.72408 | 114.58997 | 32370 ft | 473 kts | 357° |
| 2026-04-29 08:21 | 34.78969 | 114.59628 | 32360 ft | 473 kts | 357° |
| 2026-04-29 08:21 | 34.85525 | 114.60248 | 32349 ft | 472 kts | 357° |
| 2026-04-29 08:22 | 34.92064 | 114.60875 | 32364 ft | 471 kts | 357° |
| 2026-04-29 08:22 | 34.98606 | 114.61509 | 32359 ft | 471 kts | 357° |
| 2026-04-29 08:23 | 35.05135 | 114.62133 | 32346 ft | 471 kts | 357° |
| 2026-04-29 08:23 | 35.11671 | 114.62760 | 32383 ft | 470 kts | 357° |
| 2026-04-29 08:24 | 35.18203 | 114.63377 | 32358 ft | 471 kts | 357° |
| 2026-04-29 08:24 | 35.24736 | 114.64006 | 32343 ft | 471 kts | 357° |
| 2026-04-29 08:25 | 35.31262 | 114.64644 | 32340 ft | 471 kts | 357° |
| 2026-04-29 08:25 | 35.37794 | 114.65274 | 32351 ft | 471 kts | 357° |
| 2026-04-29 08:26 | 35.44323 | 114.65906 | 32333 ft | 471 kts | 357° |
| 2026-04-29 08:26 | 35.50813 | 114.66538 | 32327 ft | 471 kts | 357° |
| 2026-04-29 08:27 | 35.57357 | 114.67172 | 32361 ft | 471 kts | 358° |
| 2026-04-29 08:27 | 35.63886 | 114.67806 | 32351 ft | 471 kts | 358° |
| 2026-04-29 08:28 | 35.70421 | 114.68440 | 32340 ft | 470 kts | 358° |
| 2026-04-29 08:28 | 35.76939 | 114.69075 | 32338 ft | 469 kts | 358° |
| 2026-04-29 08:29 | 35.83402 | 114.69715 | 32353 ft | 469 kts | 358° |
| 2026-04-29 08:29 | 35.89939 | 114.70353 | 32338 ft | 468 kts | 357° |
| 2026-04-29 08:30 | 35.99634 | 114.71301 | 32328 ft | 468 kts | 358° |
| 2026-04-29 08:31 | 36.06122 | 114.71943 | 32342 ft | 467 kts | 357° |
| 2026-04-29 08:31 | 36.12603 | 114.72583 | 32330 ft | 467 kts | 357° |
| 2026-04-29 08:32 | 36.19057 | 114.73213 | 32323 ft | 467 kts | 357° |
| 2026-04-29 08:32 | 36.25563 | 114.73849 | 32317 ft | 467 kts | 357° |
| 2026-04-29 08:33 | 36.32041 | 114.74485 | 32303 ft | 466 kts | 357° |
| 2026-04-29 08:33 | 36.38497 | 114.74987 | 32302 ft | 460 kts | 351° |
| 2026-04-29 08:34 | 36.44847 | 114.74704 | 32291 ft | 459 kts | 350° |
| 2026-04-29 08:34 | 36.51237 | 114.74403 | 32306 ft | 460 kts | 350° |
| 2026-04-29 08:35 | 36.56595 | 114.74154 | 32291 ft | 460 kts | 350° |
| 2026-04-29 08:35 | 36.62948 | 114.73864 | 32286 ft | 460 kts | 350° |
| 2026-04-29 08:36 | 36.69342 | 114.73569 | 32302 ft | 460 kts | 351° |
| 2026-04-29 08:36 | 36.75762 | 114.73529 | 32288 ft | 469 kts | 360° |
| 2026-04-29 08:36 | 36.79036 | 114.74301 | 32290 ft | 486 kts | 10° |
| 2026-04-29 08:37 | 36.82239 | 114.75794 | 32285 ft | 497 kts | 20° |
| 2026-04-29 08:37 | 36.88521 | 114.79487 | 32284 ft | 500 kts | 20° |
| 2026-04-29 08:38 | 36.94813 | 114.83154 | 32286 ft | 497 kts | 20° |
| 2026-04-29 08:38 | 37.01072 | 114.86786 | 32277 ft | 496 kts | 20° |
| 2026-04-29 08:39 | 37.07335 | 114.90438 | 32276 ft | 496 kts | 20° |
| 2026-04-29 08:39 | 37.13536 | 114.94071 | 32294 ft | 495 kts | 21° |
| 2026-04-29 08:40 | 37.19761 | 114.97729 | 32284 ft | 494 kts | 21° |
| 2026-04-29 08:40 | 37.25990 | 115.01396 | 32272 ft | 493 kts | 21° |
| 2026-04-29 08:41 | 37.32204 | 115.05050 | 32262 ft | 493 kts | 21° |
| 2026-04-29 08:41 | 37.38425 | 115.08712 | 32246 ft | 493 kts | 21° |
| 2026-04-29 08:42 | 37.44636 | 115.12381 | 32254 ft | 493 kts | 21° |
| 2026-04-29 08:42 | 37.50849 | 115.16061 | 32272 ft | 492 kts | 22° |
| 2026-04-29 08:43 | 37.56994 | 115.19695 | 32284 ft | 490 kts | 22° |
| 2026-04-29 08:43 | 37.63144 | 115.23332 | 32276 ft | 488 kts | 22° |
| 2026-04-29 08:44 | 37.69297 | 115.26945 | 32282 ft | 486 kts | 22° |
| 2026-04-29 08:44 | 37.75431 | 115.30477 | 32272 ft | 483 kts | 22° |
| 2026-04-29 08:45 | 37.81534 | 115.33998 | 32242 ft | 482 kts | 22° |
| 2026-04-29 08:45 | 37.87630 | 115.37569 | 32244 ft | 483 kts | 22° |
| 2026-04-29 08:46 | 37.93743 | 115.41052 | 32251 ft | 481 kts | 22° |
| 2026-04-29 08:46 | 37.99851 | 115.44524 | 32249 ft | 480 kts | 22° |
| 2026-04-29 08:47 | 38.05944 | 115.47975 | 32216 ft | 479 kts | 22° |
| 2026-04-29 08:47 | 38.12043 | 115.51311 | 32225 ft | 476 kts | 22° |
| 2026-04-29 08:48 | 38.18110 | 115.54621 | 32229 ft | 474 kts | 22° |
| 2026-04-29 08:48 | 38.24160 | 115.57918 | 32217 ft | 472 kts | 22° |